createdAt,value
2019-03-28T00:00:03.889Z,1033.5
2019-03-28T00:01:03.022Z,1033.6
2019-03-28T00:02:03.134Z,1033.4
2019-03-28T00:03:03.853Z,1033.5
2019-03-28T00:04:04.086Z,1033.4
2019-03-28T00:05:03.965Z,1033.4
2019-03-28T00:06:03.530Z,1033.5
2019-03-28T00:07:03.710Z,1033.4
2019-03-28T00:08:03.648Z,1033.4
2019-03-28T00:09:03.012Z,1033.5
2019-03-28T00:10:03.837Z,1033.4
2019-03-28T00:11:03.028Z,1033.4
2019-03-28T00:12:03.755Z,1033.5
2019-03-28T00:13:02.781Z,1033.3
2019-03-28T00:14:03.230Z,1033.4
2019-03-28T00:15:03.106Z,1033.3
2019-03-28T00:16:02.978Z,1033.4
2019-03-28T00:17:05.165Z,1033.4
2019-03-28T00:18:04.311Z,1033.3
2019-03-28T00:19:03.379Z,1033.4
2019-03-28T00:20:03.982Z,1033.4
2019-03-28T00:21:03.099Z,1033.4
2019-03-28T00:22:06.226Z,1033.3
2019-03-28T00:23:03.021Z,1033.3
2019-03-28T00:24:03.924Z,1033.3
2019-03-28T00:25:03.336Z,1033.3
2019-03-28T00:26:03.752Z,1033.3
2019-03-28T00:27:03.906Z,1033.4
2019-03-28T00:28:03.841Z,1033.3
2019-03-28T00:29:04.091Z,1033.4
2019-03-28T00:30:03.788Z,1033.4
2019-03-28T00:31:02.818Z,1033.5
2019-03-28T00:32:03.156Z,1033.4
2019-03-28T00:33:03.968Z,1033.3
2019-03-28T00:34:03.720Z,1033.3
2019-03-28T00:35:03.938Z,1033.4
2019-03-28T00:36:03.847Z,1033.4
2019-03-28T00:37:03.720Z,1033.4
2019-03-28T00:38:03.697Z,1033.4
2019-03-28T00:39:03.979Z,1033.4
2019-03-28T00:40:03.228Z,1033.4
2019-03-28T00:41:03.770Z,1033.4
2019-03-28T00:42:03.962Z,1033.5
2019-03-28T00:43:03.992Z,1033.4
2019-03-28T00:44:03.778Z,1033.5
2019-03-28T00:45:03.102Z,1033.4
2019-03-28T00:46:03.048Z,1033.5
2019-03-28T00:47:03.855Z,1033.4
2019-03-28T00:48:03.653Z,1033.4
2019-03-28T00:49:03.900Z,1033.5
2019-03-28T00:50:03.737Z,1033.6
2019-03-28T00:51:03.670Z,1033.5
2019-03-28T00:52:03.749Z,1033.5
2019-03-28T00:53:03.102Z,1033.5
2019-03-28T00:54:03.708Z,1033.6
2019-03-28T00:55:03.764Z,1033.5
2019-03-28T00:56:03.645Z,1033.5
2019-03-28T00:57:03.132Z,1033.4
2019-03-28T00:58:02.869Z,1033.4
2019-03-28T00:59:03.774Z,1033.3
2019-03-28T01:00:02.966Z,1033.4
2019-03-28T01:01:03.732Z,1033.5
2019-03-28T01:02:03.742Z,1033.3
2019-03-28T01:03:03.834Z,1033.4
2019-03-28T01:04:03.052Z,1033.4
2019-03-28T01:05:04.198Z,1033.3
2019-03-28T01:06:03.144Z,1033.5
2019-03-28T01:07:04.189Z,1033.5
2019-03-28T01:08:03.941Z,1033.5
2019-03-28T01:09:05.908Z,1033.4
2019-03-28T01:10:03.923Z,1033.5
2019-03-28T01:11:03.882Z,1033.4
2019-03-28T01:12:03.790Z,1033.4
2019-03-28T01:13:03.980Z,1033.5
2019-03-28T01:14:03.506Z,1033.5
2019-03-28T01:15:03.869Z,1033.5
2019-03-28T01:16:03.462Z,1033.4
2019-03-28T01:17:03.974Z,1033.5
2019-03-28T01:18:03.867Z,1033.5
2019-03-28T01:19:03.737Z,1033.4
2019-03-28T01:20:03.868Z,1033.4
2019-03-28T01:21:03.800Z,1033.4
2019-03-28T01:22:03.600Z,1033.4
2019-03-28T01:23:03.824Z,1033.5
2019-03-28T01:24:03.573Z,1033.4
2019-03-28T01:25:03.561Z,1033.5
2019-03-28T01:26:03.380Z,1033.4
2019-03-28T01:27:03.450Z,1033.5
2019-03-28T01:28:03.624Z,1033.5
2019-03-28T01:29:03.631Z,1033.5
2019-03-28T01:30:03.531Z,1033.4
2019-03-28T01:31:03.544Z,1033.5
2019-03-28T01:32:03.514Z,1033.5
2019-03-28T01:33:03.389Z,1033.4
2019-03-28T01:34:03.837Z,1033.4
2019-03-28T01:35:03.787Z,1033.4
2019-03-28T01:36:03.611Z,1033.4
2019-03-28T01:37:04.471Z,1033.4
2019-03-28T01:38:03.360Z,1033.4
2019-03-28T01:39:03.821Z,1033.4
2019-03-28T01:40:03.808Z,1033.4
2019-03-28T01:41:03.721Z,1033.3
2019-03-28T01:42:03.387Z,1033.4
2019-03-28T01:43:03.186Z,1033.4
2019-03-28T01:44:03.060Z,1033.4
2019-03-28T01:45:03.562Z,1033.3
2019-03-28T01:46:03.405Z,1033.3
2019-03-28T01:47:03.269Z,1033.4
2019-03-28T01:48:03.215Z,1033.4
2019-03-28T01:49:04.123Z,1033.3
2019-03-28T01:50:03.304Z,1033.3
2019-03-28T01:51:03.371Z,1033.3
2019-03-28T01:52:04.825Z,1033.3
2019-03-28T01:53:02.208Z,1033.3
2019-03-28T01:54:03.900Z,1033.2
2019-03-28T01:55:03.412Z,1033.3
2019-03-28T01:56:03.594Z,1033.3
2019-03-28T01:57:13.369Z,1033.3
2019-03-28T01:58:03.530Z,1033.2
2019-03-28T01:59:03.338Z,1033.2
2019-03-28T02:00:03.634Z,1033.2
2019-03-28T02:01:04.638Z,1033.2
2019-03-28T02:02:03.072Z,1033.2
2019-03-28T02:03:03.362Z,1033.2
2019-03-28T02:04:03.300Z,1033.3
2019-03-28T02:05:03.421Z,1033.4
2019-03-28T02:06:03.152Z,1033.2
2019-03-28T02:07:03.462Z,1033.4
2019-03-28T02:08:03.332Z,1033.2
2019-03-28T02:09:03.451Z,1033.4
2019-03-28T02:10:03.371Z,1033.3
2019-03-28T02:11:03.201Z,1033.3
2019-03-28T02:12:03.138Z,1033.3
2019-03-28T02:13:03.238Z,1033.3
2019-03-28T02:14:03.995Z,1033.2
2019-03-28T02:15:03.171Z,1033.4
2019-03-28T02:16:03.232Z,1033.2
2019-03-28T02:17:03.548Z,1033.2
2019-03-28T02:18:03.743Z,1033.2
2019-03-28T02:19:04.045Z,1033.3
2019-03-28T02:20:03.088Z,1033.3
2019-03-28T02:21:03.958Z,1033.2
2019-03-28T02:22:03.849Z,1033.2
2019-03-28T02:23:03.922Z,1033.2
2019-03-28T02:24:03.772Z,1033.3
2019-03-28T02:25:02.899Z,1033.3
2019-03-28T02:26:03.728Z,1033.2
2019-03-28T02:27:03.213Z,1033.3
2019-03-28T02:28:03.866Z,1033.3
2019-03-28T02:29:02.870Z,1033.2
2019-03-28T02:30:03.374Z,1033.2
2019-03-28T02:31:03.007Z,1033.3
2019-03-28T02:32:03.154Z,1033.3
2019-03-28T02:33:03.174Z,1033.3
2019-03-28T02:34:03.288Z,1033.2
2019-03-28T02:35:04.013Z,1033.2
2019-03-28T02:36:03.289Z,1033.2
2019-03-28T02:37:03.931Z,1033.2
2019-03-28T02:38:03.787Z,1033.2
2019-03-28T02:39:03.855Z,1033.1
2019-03-28T02:40:03.968Z,1033.1
2019-03-28T02:41:03.878Z,1033.2
2019-03-28T02:42:03.951Z,1033.2
2019-03-28T02:43:03.836Z,1033.2
2019-03-28T02:44:03.885Z,1033.2
2019-03-28T02:45:04.414Z,1033.1
2019-03-28T02:46:03.804Z,1033.2
2019-03-28T02:47:03.684Z,1033.2
2019-03-28T02:48:03.549Z,1033.1
2019-03-28T02:49:03.584Z,1033.2
2019-03-28T02:50:03.729Z,1033.4
2019-03-28T02:51:04.490Z,1033.2
2019-03-28T02:52:03.433Z,1033.2
2019-03-28T02:53:03.879Z,1033.2
2019-03-28T02:54:03.393Z,1033.2
2019-03-28T02:55:04.086Z,1033.3
2019-03-28T02:56:03.815Z,1033.2
2019-03-28T02:57:03.637Z,1033.1
2019-03-28T02:58:03.438Z,1033.3
2019-03-28T02:59:03.666Z,1033.1
2019-03-28T03:00:03.685Z,1033.3
2019-03-28T03:01:03.478Z,1033.3
2019-03-28T03:02:03.414Z,1033.2
2019-03-28T03:03:03.444Z,1033.3
2019-03-28T03:04:03.613Z,1033.3
2019-03-28T03:05:03.463Z,1033.3
2019-03-28T03:06:03.522Z,1033.2
2019-03-28T03:07:03.560Z,1033.2
2019-03-28T03:08:03.539Z,1033.3
2019-03-28T03:09:02.942Z,1033.2
2019-03-28T03:10:03.614Z,1033.2
2019-03-28T03:11:03.291Z,1033.3
2019-03-28T03:12:03.457Z,1033.3
2019-03-28T03:13:03.355Z,1033.4
2019-03-28T03:14:03.157Z,1033.4
2019-03-28T03:15:04.235Z,1033.4
2019-03-28T03:16:03.093Z,1033.4
2019-03-28T03:17:03.504Z,1033.4
2019-03-28T03:18:03.224Z,1033.4
2019-03-28T03:19:03.520Z,1033.5
2019-03-28T03:20:03.684Z,1033.2
2019-03-28T03:21:03.057Z,1033.2
2019-03-28T03:22:03.588Z,1033.2
2019-03-28T03:23:03.604Z,1033.4
2019-03-28T03:24:03.015Z,1033.3
2019-03-28T03:25:03.258Z,1033.3
2019-03-28T03:26:03.606Z,1033.3
2019-03-28T03:27:03.324Z,1033.3
2019-03-28T03:28:03.563Z,1033.4
2019-03-28T03:29:03.385Z,1033.3
2019-03-28T03:30:04.279Z,1033.2
2019-03-28T03:31:03.537Z,1033.2
2019-03-28T03:32:03.641Z,1033.3
2019-03-28T03:33:03.705Z,1033.3
2019-03-28T03:34:06.146Z,1033.2
2019-03-28T03:35:03.512Z,1033.2
2019-03-28T03:36:03.330Z,1033.4
2019-03-28T03:37:04.509Z,1033.3
2019-03-28T03:38:02.923Z,1033.3
2019-03-28T03:39:03.275Z,1033.4
2019-03-28T03:40:03.221Z,1033.4
2019-03-28T03:41:03.484Z,1033.3
2019-03-28T03:42:03.275Z,1033.4
2019-03-28T03:43:03.129Z,1033.3
2019-03-28T03:44:03.327Z,1033.3
2019-03-28T03:45:03.196Z,1033.4
2019-03-28T03:46:03.280Z,1033.3
2019-03-28T03:47:03.046Z,1033.3
2019-03-28T03:48:03.257Z,1033.5
2019-03-28T03:49:03.024Z,1033.4
2019-03-28T03:50:03.314Z,1033.4
2019-03-28T03:51:03.095Z,1033.5
2019-03-28T03:52:03.296Z,1033.5
2019-03-28T03:53:02.946Z,1033.5
2019-03-28T03:54:03.257Z,1033.4
2019-03-28T03:55:03.145Z,1033.4
2019-03-28T03:56:03.308Z,1033.4
2019-03-28T03:57:03.314Z,1033.4
2019-03-28T03:58:19.554Z,1033.4
2019-03-28T03:59:03.362Z,1033.4
2019-03-28T04:00:04.267Z,1033.4
2019-03-28T04:01:03.521Z,1033.5
2019-03-28T04:02:03.909Z,1033.4
2019-03-28T04:03:03.752Z,1033.4
2019-03-28T04:04:03.692Z,1033.5
2019-03-28T04:05:03.893Z,1033.4
2019-03-28T04:06:03.690Z,1033.4
2019-03-28T04:07:03.555Z,1033.5
2019-03-28T04:08:03.731Z,1033.4
2019-03-28T04:09:03.488Z,1033.4
2019-03-28T04:10:03.791Z,1033.4
2019-03-28T04:11:03.739Z,1033.4
2019-03-28T04:12:03.679Z,1033.5
2019-03-28T04:13:03.509Z,1033.4
2019-03-28T04:14:03.478Z,1033.4
2019-03-28T04:15:03.729Z,1033.4
2019-03-28T04:16:04.487Z,1033.5
2019-03-28T04:17:04.011Z,1033.4
2019-03-28T04:18:03.557Z,1033.4
2019-03-28T04:19:03.496Z,1033.5
2019-03-28T04:20:03.599Z,1033.4
2019-03-28T04:21:03.789Z,1033.4
2019-03-28T04:22:03.346Z,1033.5
2019-03-28T04:23:04.584Z,1033.4
2019-03-28T04:24:03.339Z,1033.5
2019-03-28T04:25:03.204Z,1033.4
2019-03-28T04:26:03.477Z,1033.4
2019-03-28T04:27:03.313Z,1033.5
2019-03-28T04:28:03.197Z,1033.5
2019-03-28T04:29:03.394Z,1033.5
2019-03-28T04:30:03.203Z,1033.5
2019-03-28T04:31:03.102Z,1033.5
2019-03-28T04:32:03.041Z,1033.5
2019-03-28T04:33:03.165Z,1033.5
2019-03-28T04:34:10.290Z,1033.5
2019-03-28T04:35:03.286Z,1033.4
2019-03-28T04:36:03.091Z,1033.5
2019-03-28T04:37:03.092Z,1033.5
2019-03-28T04:38:03.412Z,1033.4
2019-03-28T04:39:03.092Z,1033.5
2019-03-28T04:40:03.001Z,1033.5
2019-03-28T04:41:03.113Z,1033.5
2019-03-28T04:42:03.661Z,1033.4
2019-03-28T04:43:03.040Z,1033.4
2019-03-28T04:44:03.795Z,1033.3
2019-03-28T04:45:05.964Z,1033.4
2019-03-28T04:46:03.623Z,1033.5
2019-03-28T04:47:03.847Z,1033.5
2019-03-28T04:48:03.713Z,1033.4
2019-03-28T04:49:04.001Z,1033.5
2019-03-28T04:50:03.731Z,1033.5
2019-03-28T04:51:03.712Z,1033.5
2019-03-28T04:52:03.628Z,1033.5
2019-03-28T04:53:03.886Z,1033.4
2019-03-28T04:54:04.022Z,1033.5
2019-03-28T04:55:03.600Z,1033.4
2019-03-28T04:56:03.477Z,1033.5
2019-03-28T04:57:04.716Z,1033.5
2019-03-28T04:58:03.886Z,1033.4
2019-03-28T04:59:03.738Z,1033.4
2019-03-28T05:00:03.925Z,1033.5
2019-03-28T05:01:03.607Z,1033.5
2019-03-28T05:02:05.703Z,1033.5
2019-03-28T05:03:03.515Z,1033.5
2019-03-28T05:04:03.673Z,1033.6
2019-03-28T05:05:03.619Z,1033.5
2019-03-28T05:06:03.863Z,1033.6
2019-03-28T05:07:03.518Z,1033.6
2019-03-28T05:08:03.488Z,1033.7
2019-03-28T05:09:03.531Z,1033.5
2019-03-28T05:10:03.581Z,1033.6
2019-03-28T05:11:03.649Z,1033.6
2019-03-28T05:12:04.027Z,1033.5
2019-03-28T05:13:03.448Z,1033.5
2019-03-28T05:14:03.504Z,1033.6
2019-03-28T05:15:03.431Z,1033.6
2019-03-28T05:16:03.334Z,1033.6
2019-03-28T05:17:03.319Z,1033.5
2019-03-28T05:18:03.514Z,1033.5
2019-03-28T05:19:03.479Z,1033.6
2019-03-28T05:20:03.419Z,1033.7
2019-03-28T05:21:03.758Z,1033.6
2019-03-28T05:22:03.598Z,1033.6
2019-03-28T05:23:04.406Z,1033.6
2019-03-28T05:24:03.101Z,1033.6
2019-03-28T05:25:03.742Z,1033.7
2019-03-28T05:26:03.666Z,1033.7
2019-03-28T05:27:03.632Z,1033.6
2019-03-28T05:28:03.178Z,1033.6
2019-03-28T05:29:03.664Z,1033.7
2019-03-28T05:30:07.051Z,1033.5
2019-03-28T05:31:03.534Z,1033.5
2019-03-28T05:32:03.384Z,1033.5
2019-03-28T05:33:03.479Z,1033.5
2019-03-28T05:34:03.032Z,1033.7
2019-03-28T05:35:03.493Z,1033.5
2019-03-28T05:36:04.966Z,1033.5
2019-03-28T05:37:03.228Z,1033.5
2019-03-28T05:38:03.404Z,1033.5
2019-03-28T05:39:03.184Z,1033.5
2019-03-28T05:40:03.205Z,1033.6
2019-03-28T05:41:02.922Z,1033.6
2019-03-28T05:42:03.689Z,1033.5
2019-03-28T05:43:03.297Z,1033.4
2019-03-28T05:44:03.372Z,1033.5
2019-03-28T05:45:03.638Z,1033.5
2019-03-28T05:46:03.058Z,1033.5
2019-03-28T05:47:03.910Z,1033.4
2019-03-28T05:48:02.993Z,1033.4
2019-03-28T05:49:03.231Z,1033.5
2019-03-28T05:50:03.362Z,1033.5
2019-03-28T05:51:03.469Z,1033.5
2019-03-28T05:52:03.214Z,1033.5
2019-03-28T05:53:03.205Z,1033.5
2019-03-28T05:54:03.122Z,1033.6
2019-03-28T05:55:05.938Z,1033.5
2019-03-28T05:56:02.994Z,1033.6
2019-03-28T05:57:03.157Z,1033.4
2019-03-28T05:58:02.951Z,1033.5
2019-03-28T05:59:11.953Z,1033.4
2019-03-28T06:00:03.185Z,1033.5
2019-03-28T06:01:04.068Z,1033.4
2019-03-28T06:02:02.971Z,1033.4
2019-03-28T06:03:03.001Z,1033.5
2019-03-28T06:04:03.016Z,1033.4
2019-03-28T06:05:04.024Z,1033.5
2019-03-28T06:06:03.992Z,1033.5
2019-03-28T06:07:03.158Z,1033.5
2019-03-28T06:08:03.070Z,1033.5
2019-03-28T06:09:03.686Z,1033.5
2019-03-28T06:10:03.192Z,1033.5
2019-03-28T06:11:02.971Z,1033.4
2019-03-28T06:12:03.250Z,1033.4
2019-03-28T06:13:03.062Z,1033.4
2019-03-28T06:14:03.916Z,1033.4
2019-03-28T06:15:03.903Z,1033.5
2019-03-28T06:16:02.776Z,1033.5
2019-03-28T06:17:03.519Z,1033.4
2019-03-28T06:18:02.975Z,1033.5
2019-03-28T06:19:03.881Z,1033.4
2019-03-28T06:20:03.096Z,1033.5
2019-03-28T06:21:03.116Z,1033.4
2019-03-28T06:22:03.613Z,1033.5
2019-03-28T06:23:03.670Z,1033.4
2019-03-28T06:24:03.184Z,1033.4
2019-03-28T06:25:06.720Z,1033.4
2019-03-28T06:26:03.175Z,1033.4
2019-03-28T06:27:03.721Z,1033.4
2019-03-28T06:28:03.254Z,1033.4
2019-03-28T06:29:03.600Z,1033.5
2019-03-28T06:30:03.541Z,1033.5
2019-03-28T06:31:03.941Z,1033.4
2019-03-28T06:32:03.759Z,1033.4
2019-03-28T06:33:03.577Z,1033.4
2019-03-28T06:34:03.768Z,1033.5
2019-03-28T06:35:03.361Z,1033.5
2019-03-28T06:36:03.569Z,1033.5
2019-03-28T06:37:03.585Z,1033.5
2019-03-28T06:38:03.352Z,1033.6
2019-03-28T06:39:03.627Z,1033.6
2019-03-28T06:40:03.556Z,1033.6
2019-03-28T06:41:03.731Z,1033.6
2019-03-28T06:42:03.618Z,1033.6
2019-03-28T06:43:03.438Z,1033.5
2019-03-28T06:44:03.612Z,1033.5
2019-03-28T06:45:04.454Z,1033.4
2019-03-28T06:46:03.457Z,1033.4
2019-03-28T06:47:03.388Z,1033.5
2019-03-28T06:48:03.269Z,1033.5
2019-03-28T06:49:03.306Z,1033.5
2019-03-28T06:50:03.293Z,1033.6
2019-03-28T06:51:03.670Z,1033.5
2019-03-28T06:52:03.493Z,1033.5
2019-03-28T06:53:03.242Z,1033.5
2019-03-28T06:54:04.814Z,1033.4
2019-03-28T06:55:03.365Z,1033.4
2019-03-28T06:56:02.165Z,1033.5
2019-03-28T06:57:03.449Z,1033.5
2019-03-28T06:58:03.253Z,1033.4
2019-03-28T06:59:03.196Z,1033.5
2019-03-28T07:00:03.131Z,1033.4
2019-03-28T07:01:03.144Z,1033.3
2019-03-28T07:02:03.231Z,1033.3
2019-03-28T07:03:03.283Z,1033.3
2019-03-28T07:04:04.932Z,1033.2
2019-03-28T07:05:03.037Z,1033.3
2019-03-28T07:06:03.241Z,1033.2
2019-03-28T07:07:03.112Z,1033.3
2019-03-28T07:08:02.981Z,1033.3
2019-03-28T07:09:02.807Z,1033
2019-03-28T07:10:04.185Z,1033
2019-03-28T07:11:03.330Z,1033.1
2019-03-28T07:12:02.982Z,1033.1
2019-03-28T07:13:03.390Z,1033
2019-03-28T07:14:03.463Z,1032.9
2019-03-28T07:15:03.774Z,1033
2019-03-28T07:16:03.221Z,1032.9
2019-03-28T07:17:04.131Z,1033
2019-03-28T07:18:03.406Z,1032.8
2019-03-28T07:19:04.021Z,1032.8
2019-03-28T07:20:03.245Z,1032.9
2019-03-28T07:21:03.050Z,1032.7
2019-03-28T07:22:03.406Z,1032.8
2019-03-28T07:23:03.101Z,1032.8
2019-03-28T07:24:03.210Z,1032.8
2019-03-28T07:25:03.462Z,1032.8
2019-03-28T07:26:03.978Z,1032.8
2019-03-28T07:27:03.021Z,1032.8
2019-03-28T07:28:07.024Z,1032.8
2019-03-28T07:29:03.182Z,1032.8
2019-03-28T07:30:03.905Z,1032.9
2019-03-28T07:31:02.974Z,1032.8
2019-03-28T07:32:03.281Z,1032.8
2019-03-28T07:33:03.362Z,1032.8
2019-03-28T07:34:03.918Z,1032.9
2019-03-28T07:35:03.031Z,1032.8
2019-03-28T07:36:02.883Z,1032.9
2019-03-28T07:37:03.119Z,1032.7
2019-03-28T07:38:03.964Z,1032.7
2019-03-28T07:39:03.890Z,1032.7
2019-03-28T07:40:03.305Z,1032.7
2019-03-28T07:41:04.086Z,1032.7
2019-03-28T07:42:03.262Z,1032.6
2019-03-28T07:43:03.979Z,1032.7
2019-03-28T07:44:03.193Z,1032.6
2019-03-28T07:45:03.974Z,1032.5
2019-03-28T07:46:03.816Z,1032.5
2019-03-28T07:47:02.942Z,1032.5
2019-03-28T07:48:03.750Z,1032.5
2019-03-28T07:49:03.555Z,1032.5
2019-03-28T07:50:03.081Z,1032.4
2019-03-28T07:51:02.985Z,1032.5
2019-03-28T07:52:04.012Z,1032.5
2019-03-28T07:53:03.887Z,1032.4
2019-03-28T07:54:03.253Z,1032.4
2019-03-28T07:55:03.645Z,1032.4
2019-03-28T07:56:03.747Z,1032.4
2019-03-28T07:57:03.933Z,1032.4
2019-03-28T07:58:03.545Z,1032.2
2019-03-28T07:59:03.731Z,1032.2
2019-03-28T08:00:05.835Z,1032.3
2019-03-28T08:01:03.113Z,1032.2
2019-03-28T08:02:04.092Z,1032
2019-03-28T08:03:04.005Z,1032.1
2019-03-28T08:04:03.953Z,1032.1
2019-03-28T08:05:03.954Z,1032.2
2019-03-28T08:06:03.805Z,1032.2
2019-03-28T08:07:03.174Z,1032.1
2019-03-28T08:08:03.926Z,1032.1
2019-03-28T08:09:03.851Z,1032
2019-03-28T08:10:03.962Z,1032.1
2019-03-28T08:11:02.970Z,1032.1
2019-03-28T08:12:03.218Z,1032.2
2019-03-28T08:13:03.612Z,1032
2019-03-28T08:14:04.005Z,1032.1
2019-03-28T08:15:03.627Z,1032.1
2019-03-28T08:16:03.802Z,1032.2
2019-03-28T08:17:03.591Z,1032
2019-03-28T08:18:03.986Z,1032
2019-03-28T08:19:03.422Z,1032
2019-03-28T08:20:03.804Z,1032
2019-03-28T08:21:03.532Z,1032
2019-03-28T08:22:03.772Z,1032
2019-03-28T08:23:03.568Z,1032
2019-03-28T08:24:03.692Z,1032
2019-03-28T08:25:03.567Z,1032
2019-03-28T08:26:03.523Z,1032
2019-03-28T08:27:03.514Z,1032.1
2019-03-28T08:28:03.094Z,1032.1
2019-03-28T08:29:03.688Z,1032.1
2019-03-28T08:30:19.993Z,1032
2019-03-28T08:31:03.365Z,1032
2019-03-28T08:32:03.593Z,1032
2019-03-28T08:33:04.833Z,1032
2019-03-28T08:34:02.864Z,1031.8
2019-03-28T08:35:04.078Z,1031.9
2019-03-28T08:36:03.555Z,1031.9
2019-03-28T08:37:03.865Z,1031.8
2019-03-28T08:38:03.712Z,1031.9
2019-03-28T08:39:03.765Z,1031.9
2019-03-28T08:40:03.567Z,1031.9
2019-03-28T08:41:07.692Z,1031.9
2019-03-28T08:42:04.040Z,1031.9
2019-03-28T08:43:03.765Z,1031.9
2019-03-28T08:44:03.599Z,1032
2019-03-28T08:45:03.698Z,1032.1
2019-03-28T08:46:03.893Z,1032.2
2019-03-28T08:47:06.742Z,1032.2
2019-03-28T08:48:03.795Z,1032.1
2019-03-28T08:49:03.065Z,1032.1
2019-03-28T08:50:04.374Z,1032.1
2019-03-28T08:51:03.131Z,1032.1
2019-03-28T08:52:04.053Z,1032
2019-03-28T08:53:03.840Z,1032.1
2019-03-28T08:54:03.905Z,1032
2019-03-28T08:55:04.040Z,1032
2019-03-28T08:56:03.872Z,1032.2
2019-03-28T08:57:03.573Z,1032
2019-03-28T08:58:03.595Z,1032.1
2019-03-28T08:59:03.601Z,1032
2019-03-28T09:00:03.611Z,1032.1
2019-03-28T09:01:03.654Z,1032.2
2019-03-28T09:02:35.942Z,1032.2
2019-03-28T09:03:03.503Z,1032.2
2019-03-28T09:04:03.329Z,1032.2
2019-03-28T09:05:03.382Z,1032.1
2019-03-28T09:06:03.447Z,1032.2
2019-03-28T09:07:03.384Z,1032.1
2019-03-28T09:08:03.231Z,1032.2
2019-03-28T09:09:03.416Z,1032.2
2019-03-28T09:10:03.299Z,1032.1
2019-03-28T09:11:04.142Z,1032.1
2019-03-28T09:12:03.314Z,1032.2
2019-03-28T09:13:35.460Z,1032.2
2019-03-28T09:14:03.283Z,1032.3
2019-03-28T09:16:03.334Z,1032.2
2019-03-28T09:16:08.619Z,1032.2
2019-03-28T09:17:03.745Z,1032.3
2019-03-28T09:18:03.571Z,1032.2
2019-03-28T09:19:03.444Z,1032.2
2019-03-28T09:20:03.685Z,1032.2
2019-03-28T09:21:03.485Z,1032.1
2019-03-28T09:22:03.504Z,1032.2
2019-03-28T09:23:03.048Z,1032.2
2019-03-28T09:24:03.319Z,1032.1
2019-03-28T09:25:04.743Z,1032.1
2019-03-28T09:26:05.209Z,1032.2
2019-03-28T09:27:03.500Z,1032.1
2019-03-28T09:28:03.391Z,1032.1
2019-03-28T09:29:03.759Z,1032
2019-03-28T09:30:03.678Z,1032.1
2019-03-28T09:31:03.637Z,1032
2019-03-28T09:32:03.863Z,1032.1
2019-03-28T09:33:03.694Z,1031.9
2019-03-28T09:34:03.783Z,1031.9
2019-03-28T09:35:03.409Z,1032
2019-03-28T09:36:03.567Z,1031.9
2019-03-28T09:37:03.774Z,1031.9
2019-03-28T09:38:03.547Z,1031.9
2019-03-28T09:39:03.454Z,1031.9
2019-03-28T09:40:03.382Z,1031.8
2019-03-28T09:41:03.567Z,1031.8
2019-03-28T09:42:03.427Z,1031.9
2019-03-28T09:43:03.570Z,1031.8
2019-03-28T09:44:03.492Z,1031.9
2019-03-28T09:45:03.485Z,1031.7
2019-03-28T09:46:03.514Z,1031.7
2019-03-28T09:47:03.676Z,1031.7
2019-03-28T09:48:03.657Z,1031.7
2019-03-28T09:49:03.422Z,1031.8
2019-03-28T09:50:03.538Z,1031.7
2019-03-28T09:51:03.221Z,1031.7
2019-03-28T09:52:03.305Z,1031.7
2019-03-28T09:53:03.355Z,1031.7
2019-03-28T09:54:03.019Z,1031.7
2019-03-28T09:55:03.183Z,1031.7
2019-03-28T09:56:03.671Z,1031.7
2019-03-28T09:57:03.374Z,1031.6
2019-03-28T09:58:03.390Z,1031.7
2019-03-28T09:59:03.344Z,1031.6
2019-03-28T10:00:03.726Z,1031.7
2019-03-28T10:01:03.840Z,1031.6
2019-03-28T10:02:03.813Z,1031.8
2019-03-28T10:03:03.189Z,1031.8
2019-03-28T10:04:07.063Z,1032
2019-03-28T10:05:03.687Z,1031.9
2019-03-28T10:06:03.271Z,1031.9
2019-03-28T10:07:03.875Z,1031.8
2019-03-28T10:08:03.606Z,1031.9
2019-03-28T10:09:03.646Z,1031.7
2019-03-28T10:10:09.486Z,1031.7
2019-03-28T10:11:03.821Z,1031.9
2019-03-28T10:12:03.762Z,1031.8
2019-03-28T10:13:03.760Z,1031.7
2019-03-28T10:14:03.359Z,1031.8
2019-03-28T10:15:03.893Z,1031.7
2019-03-28T10:16:03.196Z,1031.7
2019-03-28T10:17:03.306Z,1031.7
2019-03-28T10:18:03.486Z,1031.6
2019-03-28T10:19:03.205Z,1031.7
2019-03-28T10:20:06.105Z,1031.6
2019-03-28T10:21:03.269Z,1031.6
2019-03-28T10:22:03.223Z,1031.4
2019-03-28T10:23:03.330Z,1031.5
2019-03-28T10:24:03.428Z,1031.6
2019-03-28T10:25:03.370Z,1031.6
2019-03-28T10:26:03.197Z,1031.6
2019-03-28T10:27:03.157Z,1031.5
2019-03-28T10:28:03.350Z,1031.5
2019-03-28T10:29:03.209Z,1031.5
2019-03-28T10:30:03.158Z,1031.4
2019-03-28T10:31:17.445Z,1031.4
2019-03-28T10:32:04.117Z,1031.5
2019-03-28T10:33:04.036Z,1031.6
2019-03-28T10:34:03.530Z,1031.6
2019-03-28T10:35:07.684Z,1031.7
2019-03-28T10:36:03.950Z,1031.6
2019-03-28T10:37:04.006Z,1031.6
2019-03-28T10:38:03.567Z,1031.6
2019-03-28T10:39:03.947Z,1031.6
2019-03-28T10:40:03.958Z,1031.5
2019-03-28T10:41:03.627Z,1031.4
2019-03-28T10:42:03.720Z,1031.5
2019-03-28T10:43:03.795Z,1031.5
2019-03-28T10:44:03.890Z,1031.4
2019-03-28T10:45:03.679Z,1031.4
2019-03-28T10:46:03.947Z,1031.4
2019-03-28T10:47:05.639Z,1031.5
2019-03-28T10:48:03.893Z,1031.5
2019-03-28T10:49:03.595Z,1031.4
2019-03-28T10:50:04.880Z,1031.5
2019-03-28T10:51:03.595Z,1031.5
2019-03-28T10:52:04.615Z,1031.5
2019-03-28T10:53:03.612Z,1031.3
2019-03-28T10:54:03.567Z,1031.3
2019-03-28T10:55:03.455Z,1031.3
2019-03-28T10:56:03.246Z,1031.4
2019-03-28T10:57:32.751Z,1031.4
2019-03-28T10:58:20.152Z,1031.5
2019-03-28T10:59:03.516Z,1031.4
2019-03-28T11:00:03.249Z,1031.3
2019-03-28T11:01:03.369Z,1031.4
2019-03-28T11:02:03.325Z,1031.1
2019-03-28T11:03:05.387Z,1031.4
2019-03-28T11:04:03.395Z,1031.2
2019-03-28T11:05:03.501Z,1031.2
2019-03-28T11:06:03.469Z,1031.2
2019-03-28T11:07:03.454Z,1031.2
2019-03-28T11:08:03.347Z,1031.2
2019-03-28T11:09:03.496Z,1031.4
2019-03-28T11:10:03.544Z,1031.6
2019-03-28T11:11:03.143Z,1031.5
2019-03-28T11:12:03.708Z,1031.5
2019-03-28T11:13:03.537Z,1031.4
2019-03-28T11:14:03.271Z,1031.5
2019-03-28T11:15:03.198Z,1031.3
2019-03-28T11:16:03.623Z,1031.4
2019-03-28T11:17:03.458Z,1031.3
2019-03-28T11:18:03.501Z,1031.2
2019-03-28T11:19:03.255Z,1031.3
2019-03-28T11:20:03.518Z,1031.2
2019-03-28T11:21:03.676Z,1031.2
2019-03-28T11:22:03.174Z,1031.2
2019-03-28T11:23:03.532Z,1031.2
2019-03-28T11:24:03.250Z,1031.2
2019-03-28T11:25:03.303Z,1031.3
2019-03-28T11:26:03.149Z,1031.2
2019-03-28T11:27:03.425Z,1031.2
2019-03-28T11:28:04.264Z,1031.2
2019-03-28T11:29:04.032Z,1031
2019-03-28T11:30:03.213Z,1030.9
2019-03-28T11:31:03.297Z,1031
2019-03-28T11:32:03.150Z,1030.9
2019-03-28T11:33:07.155Z,1030.8
2019-03-28T11:34:03.203Z,1030.8
2019-03-28T11:35:04.172Z,1030.9
2019-03-28T11:36:03.192Z,1031
2019-03-28T11:37:03.348Z,1031
2019-03-28T11:38:03.691Z,1031.1
2019-03-28T11:39:03.935Z,1031.1
2019-03-28T11:40:04.026Z,1031
2019-03-28T11:41:03.900Z,1030.9
2019-03-28T11:42:03.873Z,1030.9
2019-03-28T11:43:04.148Z,1030.9
2019-03-28T11:44:03.594Z,1031
2019-03-28T11:45:03.938Z,1031.1
2019-03-28T11:46:03.604Z,1030.9
2019-03-28T11:47:03.733Z,1030.9
2019-03-28T11:48:04.001Z,1030.9
2019-03-28T11:49:03.788Z,1030.9
2019-03-28T11:50:04.070Z,1030.8
2019-03-28T11:51:03.679Z,1030.8
2019-03-28T11:52:03.512Z,1030.8
2019-03-28T11:53:03.586Z,1030.9
2019-03-28T11:54:03.515Z,1030.8
2019-03-28T11:55:03.672Z,1030.7
2019-03-28T11:56:03.529Z,1030.8
2019-03-28T11:57:03.411Z,1030.9
2019-03-28T11:58:03.430Z,1030.9
2019-03-28T11:59:06.847Z,1031
2019-03-28T12:00:03.822Z,1031
2019-03-28T12:01:03.694Z,1031.1
2019-03-28T12:02:21.178Z,1031.1
2019-03-28T12:03:03.755Z,1031
2019-03-28T12:04:03.641Z,1031
2019-03-28T12:05:03.859Z,1031
2019-03-28T12:06:03.681Z,1031
2019-03-28T12:07:03.484Z,1031
2019-03-28T12:08:03.432Z,1031.1
2019-03-28T12:09:03.781Z,1031
2019-03-28T12:10:03.529Z,1031.1
2019-03-28T12:11:03.811Z,1031
2019-03-28T12:12:03.773Z,1030.9
2019-03-28T12:13:03.280Z,1030.9
2019-03-28T12:14:03.651Z,1031
2019-03-28T12:15:03.678Z,1030.8
2019-03-28T12:16:03.701Z,1030.8
2019-03-28T12:17:03.454Z,1030.9
2019-03-28T12:18:03.541Z,1030.9
2019-03-28T12:19:03.292Z,1030.9
2019-03-28T12:20:03.361Z,1030.8
2019-03-28T12:21:03.114Z,1030.8
2019-03-28T12:22:03.260Z,1030.8
2019-03-28T12:23:03.463Z,1030.8
2019-03-28T12:24:03.240Z,1030.8
2019-03-28T12:25:03.399Z,1030.9
2019-03-28T12:26:03.462Z,1030.9
2019-03-28T12:27:04.105Z,1030.9
2019-03-28T12:28:02.983Z,1031
2019-03-28T12:29:06.458Z,1031.1
2019-03-28T12:30:03.769Z,1031.1
2019-03-28T12:31:04.085Z,1031